Cassel, montagne d'un jour 2020

Epreuve sélectionnée:


15km - Résultats Scratch

Filtre:

Partants Général Top 5



Recherche:

N° dossard
Nom
Club
15km - Classement arrivée
Clt Athlète Nat. Club Temps Sexe Cat Lap1 Lap2 Fin lap2 Lap3
0 484 DEQUIDT Julien RCA 00:00:00 M (0e) Master 0 (0e) 00:11:59 (1e) 00:22:50 (3e) 00:34:49 (1e) 00:24:17 (3e)
0 883 STIEREMANS Pierre Halluin triathlon 00:00:00 M (0e) Senior (0e) 00:12:07 (2e) 00:24:02 (6e) 00:36:08 (2e) 00:24:39 (4e)
0 778 PARMENTIER Alban VAFA 00:00:00 M (0e) Master 0 (0e) 00:12:26 (5e) 00:23:58 (4e) 00:36:23 (3e) 00:25:13 (5e)
0 963 VRAUNAT Nicolas AS MARCK 00:00:00 M (0e) Master 0 (0e) 00:12:32 (6e) 00:24:01 (5e) 00:36:32 (4e) 00:25:43 (6e)
0 598 HINGRAND Corentin VAFA 00:00:00 M (0e) Senior (0e) 00:12:25 (4e) 00:24:50 (7e) 00:37:15 (5e) 00:26:36 (10e)
0 129 CATOIRE Bastien VAFA 00:00:00 M (0e) Senior (0e) 00:12:52 (7e) 00:25:07 (8e) 00:37:58 (6e) 00:26:06 (7e)
0 157 COLLET Nicolas Nicolas collet 00:00:00 M (0e) Master 0 (0e) 00:12:52 (8e) 00:25:07 (9e) 00:37:58 (7e) 00:26:30 (8e)
0 459 DELCOUR Thomas 00:00:00 M (0e) Senior (0e) 00:13:11 (13e) 00:25:11 (11e) 00:38:22 (8e) 00:26:33 (9e)
0 458 DELATTRE Pierre-Olivier TEAM POLICE HDFN 00:00:00 M (0e) Master 1 (0e) 00:13:13 (15e) 00:25:10 (10e) 00:38:23 (9e) 00:27:44 (16e)
0 832 RIGAUT Jean-baptiste 00:00:00 M (0e) Senior (0e) 00:12:15 (3e) 00:26:21 (16e) 00:38:36 (10e) 00:28:35 (22e)
0 704 MAGQUIGNON Vincent MULTISPORT ACADEMY 00:00:00 M (0e) Master 2 (0e) 00:13:06 (11e) 00:25:35 (12e) 00:38:40 (11e) 00:27:03 (11e)
0 875 SOUDAIN Matthieu 00:00:00 M (0e) Senior (0e) 00:12:56 (9e) 00:26:11 (14e) 00:39:07 (12e) 00:27:06 (12e)
0 861 SBARDELLA François Montreuil triathlon 00:00:00 M (0e) Senior (0e) 00:13:12 (14e) 00:25:55 (13e) 00:39:07 (13e) 00:27:34 (13e)
0 639 LANEEUW Jeremy LILLE MA 00:00:00 M (0e) Senior (0e) 00:13:02 (10e) 00:26:29 (19e) 00:39:31 (14e) 00:27:42 (15e)
0 628 KNOCKAERT Samuel ELAN 59 00:00:00 M (0e) Master 1 (0e) 00:13:06 (12e) 00:26:29 (18e) 00:39:34 (15e) 00:28:22 (20e)
0 770 OVIGNEUR BERTRAND Les Chtis Coureurs Flamands De Bavinchove 00:00:00 M (0e) Master 1 (0e) 00:13:14 (16e) 00:26:26 (17e) 00:39:39 (16e) 00:28:23 (21e)
0 210 DEGRAEVE Thomas TEAM POLICE HDFN 00:00:00 M (0e) Master 1 (0e) 00:13:35 (18e) 00:26:12 (15e) 00:39:46 (17e) 00:27:59 (18e)
0 551 FIEVET Romain OAH 00:00:00 M (0e) Master 0 (0e) 00:13:39 (19e) 00:26:54 (23e) 00:40:32 (18e) 00:28:52 (25e)
0 182 DE JAEGHER Benoit FLEURBAIX J'Y COURS 00:00:00 M (0e) Master 1 (0e) 00:13:52 (23e) 00:26:47 (21e) 00:40:38 (19e) 00:29:26 (42e)
0 488 DESASY Thomas FLEURBAIX J'Y COURS 00:00:00 M (0e) Master 0 (0e) 00:13:53 (24e) 00:26:47 (20e) 00:40:39 (20e) 00:29:25 (41e)
0 992 RUBLIN Eric Unirun 00:00:00 M (0e) Master 2 (0e) 00:13:59 (28e) 00:26:57 (24e) 00:40:55 (21e) 00:27:34 (14e)
0 616 JAMET Loic 00:00:00 M (0e) Senior (0e) 00:14:08 (33e) 00:26:51 (22e) 00:40:58 (22e) 00:28:13 (19e)
0 208 DEGLIN Thomas Teteghem athletisme 00:00:00 M (0e) Master 1 (0e) 00:13:27 (17e) 00:27:33 (30e) 00:41:00 (23e) 00:29:10 (36e)
0 195 DECHERF Florian OAH 00:00:00 M (0e) Senior (0e) 00:13:50 (22e) 00:27:16 (25e) 00:41:06 (24e) 00:28:59 (29e)
0 482 DEQUEKER Arnaud 00:00:00 M (0e) Senior (0e) 00:13:58 (27e) 00:27:27 (29e) 00:41:24 (25e) 00:29:11 (37e)
0 516 DOUTRELANT Mat 00:00:00 M (0e) Senior (0e) 00:14:10 (35e) 00:27:24 (27e) 00:41:33 (26e) 00:28:53 (26e)
0 809 POPIEUL Rémi Unirun 00:00:00 M (0e) Junior (0e) 00:14:17 (38e) 00:27:21 (26e) 00:41:37 (27e) 00:29:03 (34e)
0 995 SAUVAGE Arnaud Lille triathlon 00:00:00 M (0e) Master 1 (0e) 00:13:49 (21e) 00:27:59 (36e) 00:41:47 (28e) 00:29:44 (47e)
0 614 INGELAERE Arnaud Running club hondschootois 00:00:00 M (0e) Master 1 (0e) 00:14:01 (29e) 00:27:47 (31e) 00:41:47 (29e) 00:28:41 (23e)
0 888 TABUTAUD Benoit 00:00:00 M (0e) Senior (0e) 00:13:55 (26e) 00:27:54 (34e) 00:41:49 (30e) 00:29:56 (51e)
0 769 OVAERE Pierre ELAN 59 00:00:00 M (0e) Senior (0e) 00:14:27 (43e) 00:27:24 (28e) 00:41:50 (31e) 00:29:00 (31e)
0 797 PETIT Maxence 00:00:00 M (0e) Senior (0e) 00:14:05 (32e) 00:27:49 (32e) 00:41:54 (32e) 00:27:50 (17e)
0 185 DE POORTERE Tony Unirun 00:00:00 M (0e) Senior (0e) 00:14:04 (31e) 00:27:52 (33e) 00:41:55 (33e) 00:28:59 (28e)
0 903 TIRAN Clement Aa sport sante 00:00:00 M (0e) Senior (0e) 00:14:01 (30e) 00:28:01 (38e) 00:42:01 (34e) 00:29:56 (50e)
0 713 BONZE gino 00:00:00 M (0e) Master 3 (0e) 00:13:45 (20e) 00:28:34 (48e) 00:42:19 (35e) 00:30:02 (52e)
0 131 CATTEAU Simon 00:00:00 M (0e) Senior (0e) 00:14:19 (39e) 00:28:03 (39e) 00:42:22 (36e) 00:29:00 (32e)
0 720 MEAUX Sebastien 00:00:00 M (0e) Master 0 (0e) 00:14:34 (48e) 00:28:01 (37e) 00:42:34 (37e) 00:29:15 (40e)
0 57 BERTHELOT Sebastien FLEURBAIX J'Y COURS 00:00:00 M (0e) Master 1 (0e) 00:14:37 (51e) 00:27:58 (35e) 00:42:35 (38e) 00:29:00 (30e)
0 31 BAROIS Quentin ELAN 59 00:00:00 M (0e) Senior (0e) 00:13:54 (25e) 00:28:42 (52e) 00:42:36 (39e) 00:30:33 (63e)
0 642 LARIVIÈRE Maxime 00:00:00 M (0e) Master 1 (0e) 00:14:33 (47e) 00:28:12 (40e) 00:42:45 (40e) 00:29:54 (49e)
0 485 DEQUIDT Yohann Mimo 00:00:00 M (0e) Master 0 (0e) 00:14:26 (42e) 00:28:23 (42e) 00:42:48 (41e) 00:29:37 (44e)
0 543 FASQUELLE François Aa santé sport 00:00:00 M (0e) Senior (0e) 00:14:23 (41e) 00:28:28 (45e) 00:42:50 (42e) 00:29:13 (38e)
0 707 MALENGE Alexandre Alexandre malenge 00:00:00 M (0e) Senior (0e) 00:14:10 (34e) 00:28:42 (50e) 00:42:51 (43e) 00:30:27 (60e)
0 854 SALINGUE Geoffrey US ATHLETIQUES DE LIEVIN 00:00:00 M (0e) Master 1 (0e) 00:14:28 (45e) 00:28:26 (43e) 00:42:53 (44e) 00:30:30 (61e)
0 926 VANDENRYSE Xavier Tl59 00:00:00 M (0e) Master 0 (0e) 00:14:16 (36e) 00:28:42 (51e) 00:42:57 (45e) 00:30:43 (65e)
0 796 PETIT Christophe 00:00:00 M (0e) Master 0 (0e) 00:14:22 (40e) 00:28:38 (49e) 00:42:59 (46e) 00:30:18 (54e)
0 622 JOSEPH Thomas Blaringhem trail 00:00:00 M (0e) Master 0 (0e) 00:14:35 (50e) 00:28:31 (47e) 00:43:05 (47e) 00:29:37 (45e)
0 160 COOLS Jonathan Cools jonathan 00:00:00 M (0e) Master 0 (0e) 00:14:47 (59e) 00:28:19 (41e) 00:43:06 (48e) 00:29:03 (33e)
0 163 CORNIL Mathieu 00:00:00 M (0e) Senior (0e) 00:14:46 (58e) 00:28:29 (46e) 00:43:14 (49e) 00:30:33 (62e)
0 326 GONZALEZ Anais VAFA 00:00:00 F (0e) Senior (0e) 00:15:09 (69e) 00:28:27 (44e) 00:43:35 (50e) 00:29:14 (39e)
0 703 MAGNIER Romain Romain magnier 00:00:00 M (0e) Master 0 (0e) 00:14:28 (44e) 00:29:13 (60e) 00:43:40 (51e) 00:30:23 (58e)
0 104 BRUNELLE Freddy Freddy brunelle 00:00:00 M (0e) Master 2 (0e) 00:14:31 (46e) 00:29:11 (56e) 00:43:41 (52e) 00:30:22 (55e)
0 826 RENAULT Rémi 00:00:00 M (0e) Senior (0e) 00:15:02 (65e) 00:28:43 (53e) 00:43:44 (53e) 00:29:08 (35e)
0 120 CARREIRO Tanguy 00:00:00 M (0e) Master 0 (0e) 00:14:34 (49e) 00:29:13 (58e) 00:43:46 (54e) 00:31:20 (82e)
0 753 NAUD Christophe FLEURBAIX J'Y COURS 00:00:00 M (0e) Master 2 (0e) 00:14:42 (55e) 00:29:09 (55e) 00:43:51 (55e) 00:29:29 (43e)
0 533 DURIEZ Valentin Valentin duriez 00:00:00 M (0e) Senior (0e) 00:14:44 (56e) 00:29:13 (59e) 00:43:56 (56e) 00:33:10 (135e)
0 911 TURIOT Sebastien Team spartiate 00:00:00 M (0e) Senior (0e) 00:14:45 (57e) 00:29:12 (57e) 00:43:57 (57e) 00:30:03 (53e)
0 556 FOSSATI David 00:00:00 M (0e) Master 1 (0e) 00:14:17 (37e) 00:29:44 (68e) 00:44:00 (58e) 00:31:11 (75e)
0 126 CASSEZ CEDRIC Les Chtis Coureurs Flamands De Bavinchove 00:00:00 M (0e) Master 1 (0e)